sensor_id;sensor_type;location;lat;lon;timestamp;P1;durP1;ratioP1;P2;durP2;ratioP2
19205;SDS011;59358;52.134;5.596;2023-02-20T00:02:19;19.25;;;10.48;;
19205;SDS011;59358;52.134;5.596;2023-02-20T00:04:46;23.23;;;11.95;;
19205;SDS011;59358;52.134;5.596;2023-02-20T00:07:13;20.08;;;11.30;;
19205;SDS011;59358;52.134;5.596;2023-02-20T00:09:40;22.98;;;10.93;;
19205;SDS011;59358;52.134;5.596;2023-02-20T00:12:08;23.45;;;12.63;;
19205;SDS011;59358;52.134;5.596;2023-02-20T00:14:36;21.60;;;10.57;;
19205;SDS011;59358;52.134;5.596;2023-02-20T00:17:02;21.83;;;12.20;;
19205;SDS011;59358;52.134;5.596;2023-02-20T00:19:29;23.27;;;12.00;;
19205;SDS011;59358;52.134;5.596;2023-02-20T00:21:56;24.98;;;12.90;;
19205;SDS011;59358;52.134;5.596;2023-02-20T00:24:23;22.00;;;12.18;;
19205;SDS011;59358;52.134;5.596;2023-02-20T00:26:50;23.30;;;12.90;;
19205;SDS011;59358;52.134;5.596;2023-02-20T00:29:19;25.65;;;13.35;;
19205;SDS011;59358;52.134;5.596;2023-02-20T00:31:50;22.95;;;12.90;;
19205;SDS011;59358;52.134;5.596;2023-02-20T00:34:17;25.58;;;13.98;;
19205;SDS011;59358;52.134;5.596;2023-02-20T00:36:44;24.73;;;14.32;;
19205;SDS011;59358;52.134;5.596;2023-02-20T00:39:11;23.17;;;13.20;;
19205;SDS011;59358;52.134;5.596;2023-02-20T00:41:38;30.23;;;15.85;;
19205;SDS011;59358;52.134;5.596;2023-02-20T00:44:05;27.15;;;15.05;;
19205;SDS011;59358;52.134;5.596;2023-02-20T00:46:33;22.48;;;15.55;;
19205;SDS011;59358;52.134;5.596;2023-02-20T00:49:01;29.73;;;16.95;;
19205;SDS011;59358;52.134;5.596;2023-02-20T00:51:28;24.80;;;14.85;;
19205;SDS011;59358;52.134;5.596;2023-02-20T00:53:56;26.83;;;16.02;;
19205;SDS011;59358;52.134;5.596;2023-02-20T00:56:23;28.00;;;16.73;;
19205;SDS011;59358;52.134;5.596;2023-02-20T00:58:49;25.00;;;16.70;;
19205;SDS011;59358;52.134;5.596;2023-02-20T01:01:16;29.15;;;17.98;;
19205;SDS011;59358;52.134;5.596;2023-02-20T01:03:43;26.58;;;17.20;;
19205;SDS011;59358;52.134;5.596;2023-02-20T01:06:11;35.88;;;17.98;;
19205;SDS011;59358;52.134;5.596;2023-02-20T01:08:38;31.42;;;19.02;;
19205;SDS011;59358;52.134;5.596;2023-02-20T01:11:05;34.05;;;20.23;;
19205;SDS011;59358;52.134;5.596;2023-02-20T01:13:32;34.05;;;18.90;;
19205;SDS011;59358;52.134;5.596;2023-02-20T01:15:59;33.03;;;18.48;;
19205;SDS011;59358;52.134;5.596;2023-02-20T01:18:26;32.42;;;18.00;;
19205;SDS011;59358;52.134;5.596;2023-02-20T01:20:53;31.85;;;19.25;;
19205;SDS011;59358;52.134;5.596;2023-02-20T01:23:21;31.83;;;18.63;;
19205;SDS011;59358;52.134;5.596;2023-02-20T01:25:48;28.45;;;18.45;;
19205;SDS011;59358;52.134;5.596;2023-02-20T01:28:15;33.38;;;18.42;;
19205;SDS011;59358;52.134;5.596;2023-02-20T01:30:42;36.13;;;19.25;;
19205;SDS011;59358;52.134;5.596;2023-02-20T01:33:09;32.20;;;20.75;;
19205;SDS011;59358;52.134;5.596;2023-02-20T01:35:36;31.98;;;20.98;;
19205;SDS011;59358;52.134;5.596;2023-02-20T01:38:03;32.58;;;20.77;;
19205;SDS011;59358;52.134;5.596;2023-02-20T01:40:32;35.92;;;20.90;;
19205;SDS011;59358;52.134;5.596;2023-02-20T01:43:00;37.17;;;19.63;;
19205;SDS011;59358;52.134;5.596;2023-02-20T01:45:29;35.13;;;20.33;;
19205;SDS011;59358;52.134;5.596;2023-02-20T01:47:59;35.70;;;19.13;;
19205;SDS011;59358;52.134;5.596;2023-02-20T01:50:27;36.47;;;20.38;;
19205;SDS011;59358;52.134;5.596;2023-02-20T01:52:57;31.73;;;19.27;;
19205;SDS011;59358;52.134;5.596;2023-02-20T01:55:29;40.72;;;19.80;;
19205;SDS011;59358;52.134;5.596;2023-02-20T01:58:01;38.42;;;20.38;;
19205;SDS011;59358;52.134;5.596;2023-02-20T02:00:31;30.17;;;19.15;;
19205;SDS011;59358;52.134;5.596;2023-02-20T02:02:59;36.67;;;20.60;;
19205;SDS011;59358;52.134;5.596;2023-02-20T02:05:30;34.88;;;20.05;;
19205;SDS011;59358;52.134;5.596;2023-02-20T02:07:59;36.05;;;22.17;;
19205;SDS011;59358;52.134;5.596;2023-02-20T02:10:29;39.80;;;22.58;;
19205;SDS011;59358;52.134;5.596;2023-02-20T02:13:01;34.92;;;19.73;;
19205;SDS011;59358;52.134;5.596;2023-02-20T02:15:28;37.70;;;20.30;;
19205;SDS011;59358;52.134;5.596;2023-02-20T02:17:59;32.33;;;19.23;;
19205;SDS011;59358;52.134;5.596;2023-02-20T02:24:11;32.33;;;20.70;;
19205;SDS011;59358;52.134;5.596;2023-02-20T02:27:12;39.58;;;21.80;;
19205;SDS011;59358;52.134;5.596;2023-02-20T02:33:14;38.03;;;25.15;;
19205;SDS011;59358;52.134;5.596;2023-02-20T02:36:19;42.50;;;23.95;;
19205;SDS011;59358;52.134;5.596;2023-02-20T02:38:58;51.00;;;27.25;;
19205;SDS011;59358;52.134;5.596;2023-02-20T02:41:31;52.33;;;26.90;;
19205;SDS011;59358;52.134;5.596;2023-02-20T02:44:06;49.58;;;27.83;;
19205;SDS011;59358;52.134;5.596;2023-02-20T02:46:39;49.38;;;26.85;;
19205;SDS011;59358;52.134;5.596;2023-02-20T02:49:10;53.00;;;28.65;;
19205;SDS011;59358;52.134;5.596;2023-02-20T02:51:46;48.65;;;28.35;;
19205;SDS011;59358;52.134;5.596;2023-02-20T02:54:15;52.45;;;29.98;;
19205;SDS011;59358;52.134;5.596;2023-02-20T02:56:45;57.40;;;29.73;;
19205;SDS011;59358;52.134;5.596;2023-02-20T02:59:14;58.38;;;32.42;;
19205;SDS011;59358;52.134;5.596;2023-02-20T03:01:45;48.58;;;29.45;;
19205;SDS011;59358;52.134;5.596;2023-02-20T03:04:15;54.75;;;29.92;;
19205;SDS011;59358;52.134;5.596;2023-02-20T03:06:56;55.15;;;30.95;;
19205;SDS011;59358;52.134;5.596;2023-02-20T03:09:27;57.35;;;31.30;;
19205;SDS011;59358;52.134;5.596;2023-02-20T03:11:57;59.00;;;31.92;;
19205;SDS011;59358;52.134;5.596;2023-02-20T03:14:27;71.47;;;34.03;;
19205;SDS011;59358;52.134;5.596;2023-02-20T03:17:17;61.92;;;32.58;;
19205;SDS011;59358;52.134;5.596;2023-02-20T03:19:51;68.22;;;34.38;;
19205;SDS011;59358;52.134;5.596;2023-02-20T03:22:23;59.72;;;32.88;;
19205;SDS011;59358;52.134;5.596;2023-02-20T03:24:55;61.20;;;30.35;;
19205;SDS011;59358;52.134;5.596;2023-02-20T03:27:25;67.78;;;34.83;;
19205;SDS011;59358;52.134;5.596;2023-02-20T03:30:03;62.65;;;32.95;;
19205;SDS011;59358;52.134;5.596;2023-02-20T03:32:34;61.83;;;33.35;;
19205;SDS011;59358;52.134;5.596;2023-02-20T03:35:20;57.25;;;32.88;;
19205;SDS011;59358;52.134;5.596;2023-02-20T03:38:10;64.43;;;32.90;;
19205;SDS011;59358;52.134;5.596;2023-02-20T03:40:57;58.63;;;32.85;;
19205;SDS011;59358;52.134;5.596;2023-02-20T03:43:43;69.05;;;34.63;;
19205;SDS011;59358;52.134;5.596;2023-02-20T03:46:12;66.68;;;32.35;;
19205;SDS011;59358;52.134;5.596;2023-02-20T03:48:47;59.10;;;29.98;;
19205;SDS011;59358;52.134;5.596;2023-02-20T03:51:19;64.55;;;33.47;;
19205;SDS011;59358;52.134;5.596;2023-02-20T03:53:47;62.97;;;32.30;;
19205;SDS011;59358;52.134;5.596;2023-02-20T03:56:15;65.72;;;30.92;;
19205;SDS011;59358;52.134;5.596;2023-02-20T03:58:45;57.70;;;31.90;;
19205;SDS011;59358;52.134;5.596;2023-02-20T04:01:16;58.42;;;30.90;;
19205;SDS011;59358;52.134;5.596;2023-02-20T04:03:47;74.28;;;32.92;;
19205;SDS011;59358;52.134;5.596;2023-02-20T04:06:15;65.57;;;31.60;;
19205;SDS011;59358;52.134;5.596;2023-02-20T04:08:45;66.22;;;32.58;;
19205;SDS011;59358;52.134;5.596;2023-02-20T04:11:18;65.00;;;30.17;;
19205;SDS011;59358;52.134;5.596;2023-02-20T04:13:49;61.13;;;31.33;;
19205;SDS011;59358;52.134;5.596;2023-02-20T04:16:18;62.85;;;31.50;;
19205;SDS011;59358;52.134;5.596;2023-02-20T04:18:46;61.78;;;30.88;;
19205;SDS011;59358;52.134;5.596;2023-02-20T04:21:16;63.58;;;31.27;;
19205;SDS011;59358;52.134;5.596;2023-02-20T04:23:48;69.25;;;31.88;;
19205;SDS011;59358;52.134;5.596;2023-02-20T04:26:28;62.38;;;30.27;;
19205;SDS011;59358;52.134;5.596;2023-02-20T04:28:55;57.20;;;30.58;;
19205;SDS011;59358;52.134;5.596;2023-02-20T04:31:22;56.95;;;30.83;;
19205;SDS011;59358;52.134;5.596;2023-02-20T04:33:50;67.47;;;32.38;;
19205;SDS011;59358;52.134;5.596;2023-02-20T04:36:17;66.43;;;30.80;;
19205;SDS011;59358;52.134;5.596;2023-02-20T04:38:44;69.03;;;32.05;;
19205;SDS011;59358;52.134;5.596;2023-02-20T04:41:12;65.13;;;33.70;;
19205;SDS011;59358;52.134;5.596;2023-02-20T04:43:39;74.05;;;33.35;;
19205;SDS011;59358;52.134;5.596;2023-02-20T04:46:06;63.03;;;32.42;;
19205;SDS011;59358;52.134;5.596;2023-02-20T04:48:33;73.55;;;34.58;;
19205;SDS011;59358;52.134;5.596;2023-02-20T04:51:00;64.72;;;34.10;;
19205;SDS011;59358;52.134;5.596;2023-02-20T04:53:27;77.95;;;35.88;;
19205;SDS011;59358;52.134;5.596;2023-02-20T04:55:54;75.07;;;34.92;;
19205;SDS011;59358;52.134;5.596;2023-02-20T04:58:22;69.30;;;34.65;;
19205;SDS011;59358;52.134;5.596;2023-02-20T05:00:48;72.65;;;34.00;;
19205;SDS011;59358;52.134;5.596;2023-02-20T05:03:15;64.32;;;33.85;;
19205;SDS011;59358;52.134;5.596;2023-02-20T05:05:42;78.32;;;32.80;;
19205;SDS011;59358;52.134;5.596;2023-02-20T05:08:09;72.38;;;35.20;;
19205;SDS011;59358;52.134;5.596;2023-02-20T05:10:36;76.43;;;34.42;;
19205;SDS011;59358;52.134;5.596;2023-02-20T05:13:03;66.45;;;33.08;;
19205;SDS011;59358;52.134;5.596;2023-02-20T05:15:32;70.13;;;33.97;;
19205;SDS011;59358;52.134;5.596;2023-02-20T05:17:59;68.78;;;32.67;;
19205;SDS011;59358;52.134;5.596;2023-02-20T05:20:26;71.93;;;32.50;;
19205;SDS011;59358;52.134;5.596;2023-02-20T05:23:07;65.68;;;31.75;;
19205;SDS011;59358;52.134;5.596;2023-02-20T05:25:34;72.18;;;34.22;;
19205;SDS011;59358;52.134;5.596;2023-02-20T05:28:01;65.35;;;30.20;;
19205;SDS011;59358;52.134;5.596;2023-02-20T05:30:27;60.35;;;28.95;;
19205;SDS011;59358;52.134;5.596;2023-02-20T05:32:55;56.03;;;29.95;;
19205;SDS011;59358;52.134;5.596;2023-02-20T05:35:22;63.25;;;31.27;;
19205;SDS011;59358;52.134;5.596;2023-02-20T05:37:49;62.85;;;30.88;;
19205;SDS011;59358;52.134;5.596;2023-02-20T05:40:16;65.55;;;30.42;;
19205;SDS011;59358;52.134;5.596;2023-02-20T05:42:43;54.65;;;28.75;;
19205;SDS011;59358;52.134;5.596;2023-02-20T05:45:10;52.22;;;27.75;;
19205;SDS011;59358;52.134;5.596;2023-02-20T05:47:36;48.85;;;28.08;;
19205;SDS011;59358;52.134;5.596;2023-02-20T05:50:05;56.78;;;26.90;;
19205;SDS011;59358;52.134;5.596;2023-02-20T05:52:32;60.13;;;27.60;;
19205;SDS011;59358;52.134;5.596;2023-02-20T05:54:59;51.92;;;26.67;;
19205;SDS011;59358;52.134;5.596;2023-02-20T05:57:26;58.50;;;25.90;;
19205;SDS011;59358;52.134;5.596;2023-02-20T05:59:52;56.65;;;26.20;;
19205;SDS011;59358;52.134;5.596;2023-02-20T06:02:19;51.63;;;25.05;;
19205;SDS011;59358;52.134;5.596;2023-02-20T06:04:46;56.90;;;25.58;;
19205;SDS011;59358;52.134;5.596;2023-02-20T06:07:14;54.45;;;26.25;;
19205;SDS011;59358;52.134;5.596;2023-02-20T06:09:41;57.58;;;26.52;;
19205;SDS011;59358;52.134;5.596;2023-02-20T06:12:09;51.53;;;24.63;;
19205;SDS011;59358;52.134;5.596;2023-02-20T06:14:36;58.15;;;24.63;;
19205;SDS011;59358;52.134;5.596;2023-02-20T06:17:03;48.03;;;22.48;;
19205;SDS011;59358;52.134;5.596;2023-02-20T06:19:30;47.08;;;23.48;;
19205;SDS011;59358;52.134;5.596;2023-02-20T06:21:57;41.78;;;21.95;;
19205;SDS011;59358;52.134;5.596;2023-02-20T06:24:25;49.83;;;21.58;;
19205;SDS011;59358;52.134;5.596;2023-02-20T06:26:53;44.80;;;21.35;;
19205;SDS011;59358;52.134;5.596;2023-02-20T06:29:20;38.83;;;20.08;;
19205;SDS011;59358;52.134;5.596;2023-02-20T06:31:47;43.67;;;20.13;;
19205;SDS011;59358;52.134;5.596;2023-02-20T06:34:14;46.33;;;20.02;;
19205;SDS011;59358;52.134;5.596;2023-02-20T06:36:41;42.70;;;20.40;;
19205;SDS011;59358;52.134;5.596;2023-02-20T06:39:10;46.58;;;21.02;;
19205;SDS011;59358;52.134;5.596;2023-02-20T06:41:40;41.42;;;20.17;;
19205;SDS011;59358;52.134;5.596;2023-02-20T06:44:07;45.97;;;19.75;;
19205;SDS011;59358;52.134;5.596;2023-02-20T06:46:33;30.65;;;18.15;;
19205;SDS011;59358;52.134;5.596;2023-02-20T06:49:00;39.00;;;20.05;;
19205;SDS011;59358;52.134;5.596;2023-02-20T06:51:28;39.00;;;19.20;;
19205;SDS011;59358;52.134;5.596;2023-02-20T06:53:56;42.72;;;20.50;;
19205;SDS011;59358;52.134;5.596;2023-02-20T06:56:25;45.33;;;20.50;;
19205;SDS011;59358;52.134;5.596;2023-02-20T06:58:54;41.13;;;20.77;;
19205;SDS011;59358;52.134;5.596;2023-02-20T07:01:23;42.03;;;19.33;;
19205;SDS011;59358;52.134;5.596;2023-02-20T07:03:52;48.00;;;18.55;;
19205;SDS011;59358;52.134;5.596;2023-02-20T07:06:20;45.10;;;18.80;;
19205;SDS011;59358;52.134;5.596;2023-02-20T07:08:48;36.78;;;17.05;;
19205;SDS011;59358;52.134;5.596;2023-02-20T07:11:15;35.67;;;17.60;;
19205;SDS011;59358;52.134;5.596;2023-02-20T07:13:43;38.35;;;17.55;;
19205;SDS011;59358;52.134;5.596;2023-02-20T07:16:11;36.65;;;17.17;;
19205;SDS011;59358;52.134;5.596;2023-02-20T07:18:38;37.55;;;17.75;;
19205;SDS011;59358;52.134;5.596;2023-02-20T07:21:05;32.72;;;15.57;;
19205;SDS011;59358;52.134;5.596;2023-02-20T07:23:32;38.10;;;17.55;;
19205;SDS011;59358;52.134;5.596;2023-02-20T07:25:59;31.10;;;14.10;;
19205;SDS011;59358;52.134;5.596;2023-02-20T07:28:25;35.35;;;16.58;;
19205;SDS011;59358;52.134;5.596;2023-02-20T07:30:52;38.42;;;16.08;;
19205;SDS011;59358;52.134;5.596;2023-02-20T07:33:21;35.88;;;15.15;;
19205;SDS011;59358;52.134;5.596;2023-02-20T07:35:47;32.22;;;15.25;;
19205;SDS011;59358;52.134;5.596;2023-02-20T07:38:14;37.50;;;15.52;;
19205;SDS011;59358;52.134;5.596;2023-02-20T07:40:41;36.50;;;15.40;;
19205;SDS011;59358;52.134;5.596;2023-02-20T07:43:08;29.58;;;14.27;;
19205;SDS011;59358;52.134;5.596;2023-02-20T07:45:35;40.80;;;13.98;;
19205;SDS011;59358;52.134;5.596;2023-02-20T07:48:03;33.00;;;14.73;;
19205;SDS011;59358;52.134;5.596;2023-02-20T07:50:31;32.42;;;14.57;;
19205;SDS011;59358;52.134;5.596;2023-02-20T07:52:59;37.92;;;15.93;;
19205;SDS011;59358;52.134;5.596;2023-02-20T07:55:26;35.35;;;14.63;;
19205;SDS011;59358;52.134;5.596;2023-02-20T07:57:52;34.05;;;14.38;;
19205;SDS011;59358;52.134;5.596;2023-02-20T08:00:22;35.55;;;15.60;;
19205;SDS011;59358;52.134;5.596;2023-02-20T08:02:52;39.47;;;14.07;;
19205;SDS011;59358;52.134;5.596;2023-02-20T08:05:19;30.88;;;14.70;;
19205;SDS011;59358;52.134;5.596;2023-02-20T08:07:48;31.85;;;13.60;;
19205;SDS011;59358;52.134;5.596;2023-02-20T08:10:16;27.45;;;15.05;;
19205;SDS011;59358;52.134;5.596;2023-02-20T08:12:44;33.35;;;14.48;;
19205;SDS011;59358;52.134;5.596;2023-02-20T08:15:12;34.95;;;14.25;;
19205;SDS011;59358;52.134;5.596;2023-02-20T08:17:40;31.65;;;14.52;;
19205;SDS011;59358;52.134;5.596;2023-02-20T08:20:08;32.33;;;13.98;;
19205;SDS011;59358;52.134;5.596;2023-02-20T08:22:35;33.90;;;15.30;;
19205;SDS011;59358;52.134;5.596;2023-02-20T08:25:03;31.13;;;13.48;;
19205;SDS011;59358;52.134;5.596;2023-02-20T08:27:31;34.60;;;12.77;;
19205;SDS011;59358;52.134;5.596;2023-02-20T08:30:02;24.55;;;12.80;;
19205;SDS011;59358;52.134;5.596;2023-02-20T08:32:30;33.83;;;12.75;;
19205;SDS011;59358;52.134;5.596;2023-02-20T08:34:57;29.65;;;12.63;;
19205;SDS011;59358;52.134;5.596;2023-02-20T08:37:24;28.45;;;11.88;;
19205;SDS011;59358;52.134;5.596;2023-02-20T08:39:51;30.48;;;12.63;;
19205;SDS011;59358;52.134;5.596;2023-02-20T08:42:19;33.88;;;12.18;;
19205;SDS011;59358;52.134;5.596;2023-02-20T08:44:46;31.48;;;12.50;;
19205;SDS011;59358;52.134;5.596;2023-02-20T08:47:13;30.13;;;13.68;;
19205;SDS011;59358;52.134;5.596;2023-02-20T08:49:40;30.98;;;12.57;;
19205;SDS011;59358;52.134;5.596;2023-02-20T08:52:06;26.40;;;11.88;;
19205;SDS011;59358;52.134;5.596;2023-02-20T08:54:33;35.42;;;13.65;;
19205;SDS011;59358;52.134;5.596;2023-02-20T08:57:01;29.45;;;13.52;;
19205;SDS011;59358;52.134;5.596;2023-02-20T08:59:31;28.38;;;13.30;;
19205;SDS011;59358;52.134;5.596;2023-02-20T09:01:58;36.80;;;13.90;;
19205;SDS011;59358;52.134;5.596;2023-02-20T09:04:25;33.00;;;14.15;;
19205;SDS011;59358;52.134;5.596;2023-02-20T09:06:52;26.88;;;13.38;;
19205;SDS011;59358;52.134;5.596;2023-02-20T09:09:19;34.42;;;14.55;;
19205;SDS011;59358;52.134;5.596;2023-02-20T09:11:46;33.15;;;13.98;;
19205;SDS011;59358;52.134;5.596;2023-02-20T09:14:13;27.73;;;13.55;;
19205;SDS011;59358;52.134;5.596;2023-02-20T09:16:48;34.67;;;15.15;;
19205;SDS011;59358;52.134;5.596;2023-02-20T09:19:19;26.85;;;13.93;;
19205;SDS011;59358;52.134;5.596;2023-02-20T09:21:48;30.48;;;13.32;;
19205;SDS011;59358;52.134;5.596;2023-02-20T09:24:15;33.47;;;14.95;;
19205;SDS011;59358;52.134;5.596;2023-02-20T09:26:43;37.10;;;15.02;;
19205;SDS011;59358;52.134;5.596;2023-02-20T09:29:10;31.65;;;14.15;;
19205;SDS011;59358;52.134;5.596;2023-02-20T09:31:37;41.85;;;15.43;;
19205;SDS011;59358;52.134;5.596;2023-02-20T09:34:05;26.20;;;14.77;;
19205;SDS011;59358;52.134;5.596;2023-02-20T09:36:32;36.25;;;16.60;;
19205;SDS011;59358;52.134;5.596;2023-02-20T09:38:59;44.30;;;16.38;;
19205;SDS011;59358;52.134;5.596;2023-02-20T09:41:29;38.00;;;16.08;;
19205;SDS011;59358;52.134;5.596;2023-02-20T09:44:05;36.10;;;16.33;;
19205;SDS011;59358;52.134;5.596;2023-02-20T09:46:38;27.85;;;16.55;;
19205;SDS011;59358;52.134;5.596;2023-02-20T09:49:11;37.70;;;15.77;;
19205;SDS011;59358;52.134;5.596;2023-02-20T09:51:40;39.50;;;16.08;;
19205;SDS011;59358;52.134;5.596;2023-02-20T09:54:11;40.15;;;17.92;;
19205;SDS011;59358;52.134;5.596;2023-02-20T09:56:43;39.50;;;18.20;;
19205;SDS011;59358;52.134;5.596;2023-02-20T09:59:15;39.97;;;18.38;;
19205;SDS011;59358;52.134;5.596;2023-02-20T10:01:49;32.67;;;17.80;;
19205;SDS011;59358;52.134;5.596;2023-02-20T10:04:20;29.73;;;16.92;;
19205;SDS011;59358;52.134;5.596;2023-02-20T10:06:49;32.45;;;18.73;;
19205;SDS011;59358;52.134;5.596;2023-02-20T10:09:18;37.53;;;19.48;;
19205;SDS011;59358;52.134;5.596;2023-02-20T10:11:47;38.45;;;18.02;;
19205;SDS011;59358;52.134;5.596;2023-02-20T10:14:29;37.75;;;17.35;;
19205;SDS011;59358;52.134;5.596;2023-02-20T10:17:11;38.67;;;17.98;;
19205;SDS011;59358;52.134;5.596;2023-02-20T10:19:51;35.42;;;17.90;;
19205;SDS011;59358;52.134;5.596;2023-02-20T10:22:23;35.92;;;18.85;;
19205;SDS011;59358;52.134;5.596;2023-02-20T10:24:58;44.63;;;17.45;;
19205;SDS011;59358;52.134;5.596;2023-02-20T10:27:35;34.75;;;17.30;;
19205;SDS011;59358;52.134;5.596;2023-02-20T10:30:09;31.10;;;17.05;;
19205;SDS011;59358;52.134;5.596;2023-02-20T10:32:39;36.92;;;17.50;;
19205;SDS011;59358;52.134;5.596;2023-02-20T10:35:11;35.83;;;17.27;;
19205;SDS011;59358;52.134;5.596;2023-02-20T10:37:41;26.80;;;15.15;;
19205;SDS011;59358;52.134;5.596;2023-02-20T10:40:13;29.23;;;16.50;;
19205;SDS011;59358;52.134;5.596;2023-02-20T10:42:46;27.50;;;13.50;;
19205;SDS011;59358;52.134;5.596;2023-02-20T10:45:20;29.88;;;14.55;;
19205;SDS011;59358;52.134;5.596;2023-02-20T10:47:53;27.75;;;14.52;;
19205;SDS011;59358;52.134;5.596;2023-02-20T10:50:32;32.97;;;14.45;;
19205;SDS011;59358;52.134;5.596;2023-02-20T10:53:06;32.85;;;14.57;;
19205;SDS011;59358;52.134;5.596;2023-02-20T10:55:43;38.50;;;14.90;;
19205;SDS011;59358;52.134;5.596;2023-02-20T10:58:17;29.08;;;14.55;;
19205;SDS011;59358;52.134;5.596;2023-02-20T11:00:49;35.15;;;15.45;;
19205;SDS011;59358;52.134;5.596;2023-02-20T11:03:22;28.83;;;14.65;;
19205;SDS011;59358;52.134;5.596;2023-02-20T11:09:09;26.42;;;13.40;;
19205;SDS011;59358;52.134;5.596;2023-02-20T11:12:02;29.63;;;15.82;;
19205;SDS011;59358;52.134;5.596;2023-02-20T11:15:18;31.48;;;15.70;;
19205;SDS011;59358;52.134;5.596;2023-02-20T11:18:43;36.05;;;15.98;;
19205;SDS011;59358;52.134;5.596;2023-02-20T11:25:03;38.60;;;18.40;;
19205;SDS011;59358;52.134;5.596;2023-02-20T11:31:03;32.88;;;19.45;;
19205;SDS011;59358;52.134;5.596;2023-02-20T11:34:22;33.65;;;19.00;;
19205;SDS011;59358;52.134;5.596;2023-02-20T11:37:14;35.78;;;19.60;;
19205;SDS011;59358;52.134;5.596;2023-02-20T11:40:25;31.70;;;19.55;;
19205;SDS011;59358;52.134;5.596;2023-02-20T11:43:26;32.88;;;20.60;;
19205;SDS011;59358;52.134;5.596;2023-02-20T11:45:57;30.67;;;19.67;;
19205;SDS011;59358;52.134;5.596;2023-02-20T11:48:34;27.00;;;18.08;;
19205;SDS011;59358;52.134;5.596;2023-02-20T11:51:01;35.38;;;20.30;;
19205;SDS011;59358;52.134;5.596;2023-02-20T11:53:32;33.72;;;19.88;;
19205;SDS011;59358;52.134;5.596;2023-02-20T11:56:11;30.63;;;20.20;;
19205;SDS011;59358;52.134;5.596;2023-02-20T11:58:45;36.45;;;20.35;;
19205;SDS011;59358;52.134;5.596;2023-02-20T12:01:26;37.35;;;20.60;;
19205;SDS011;59358;52.134;5.596;2023-02-20T12:07:23;31.80;;;19.35;;
19205;SDS011;59358;52.134;5.596;2023-02-20T12:09:55;33.03;;;19.02;;
19205;SDS011;59358;52.134;5.596;2023-02-20T12:12:31;35.67;;;19.70;;
19205;SDS011;59358;52.134;5.596;2023-02-20T12:14:58;40.10;;;19.88;;
19205;SDS011;59358;52.134;5.596;2023-02-20T12:17:28;33.97;;;21.02;;
19205;SDS011;59358;52.134;5.596;2023-02-20T12:20:37;27.15;;;19.48;;
19205;SDS011;59358;52.134;5.596;2023-02-20T12:23:31;33.15;;;19.58;;
19205;SDS011;59358;52.134;5.596;2023-02-20T12:26:15;32.40;;;19.92;;
19205;SDS011;59358;52.134;5.596;2023-02-20T12:29:10;31.35;;;19.00;;
19205;SDS011;59358;52.134;5.596;2023-02-20T12:32:08;30.70;;;21.10;;
19205;SDS011;59358;52.134;5.596;2023-02-20T12:34:57;32.05;;;20.35;;
19205;SDS011;59358;52.134;5.596;2023-02-20T12:37:50;29.85;;;21.05;;
19205;SDS011;59358;52.134;5.596;2023-02-20T12:40:53;32.25;;;20.63;;
19205;SDS011;59358;52.134;5.596;2023-02-20T12:44:26;31.50;;;22.10;;
19205;SDS011;59358;52.134;5.596;2023-02-20T12:50:24;37.03;;;20.98;;
19205;SDS011;59358;52.134;5.596;2023-02-20T12:53:20;35.50;;;22.13;;
19205;SDS011;59358;52.134;5.596;2023-02-20T12:59:06;37.80;;;22.38;;
19205;SDS011;59358;52.134;5.596;2023-02-20T13:02:19;30.88;;;21.08;;
19205;SDS011;59358;52.134;5.596;2023-02-20T13:05:26;36.65;;;21.42;;
19205;SDS011;59358;52.134;5.596;2023-02-20T13:08:02;33.03;;;21.08;;
19205;SDS011;59358;52.134;5.596;2023-02-20T13:10:39;34.00;;;21.13;;
19205;SDS011;59358;52.134;5.596;2023-02-20T13:13:17;37.78;;;20.23;;
19205;SDS011;59358;52.134;5.596;2023-02-20T13:19:12;31.15;;;19.15;;
19205;SDS011;59358;52.134;5.596;2023-02-20T13:22:00;32.17;;;19.30;;
19205;SDS011;59358;52.134;5.596;2023-02-20T13:24:35;34.78;;;18.65;;
19205;SDS011;59358;52.134;5.596;2023-02-20T13:27:03;36.65;;;20.58;;
19205;SDS011;59358;52.134;5.596;2023-02-20T13:29:37;34.53;;;19.70;;
19205;SDS011;59358;52.134;5.596;2023-02-20T13:32:26;31.20;;;18.02;;
19205;SDS011;59358;52.134;5.596;2023-02-20T13:38:29;32.00;;;17.38;;
19205;SDS011;59358;52.134;5.596;2023-02-20T13:55:33;33.40;;;20.13;;
19205;SDS011;59358;52.134;5.596;2023-02-20T14:09:28;36.47;;;21.10;;
19205;SDS011;59358;52.134;5.596;2023-02-20T14:16:28;32.08;;;20.83;;
19205;SDS011;59358;52.134;5.596;2023-02-20T14:19:59;35.95;;;20.55;;
19205;SDS011;59358;52.134;5.596;2023-02-20T14:24:27;39.75;;;20.42;;
19205;SDS011;59358;52.134;5.596;2023-02-20T14:26:27;38.22;;;20.98;;
19205;SDS011;59358;52.134;5.596;2023-02-20T14:29:21;34.20;;;20.58;;
19205;SDS011;59358;52.134;5.596;2023-02-20T14:35:38;43.13;;;20.70;;
19205;SDS011;59358;52.134;5.596;2023-02-20T14:38:33;38.22;;;20.58;;
19205;SDS011;59358;52.134;5.596;2023-02-20T14:41:50;34.33;;;18.58;;
19205;SDS011;59358;52.134;5.596;2023-02-20T14:44:38;43.22;;;21.35;;
19205;SDS011;59358;52.134;5.596;2023-02-20T14:47:39;36.45;;;20.75;;
19205;SDS011;59358;52.134;5.596;2023-02-20T14:50:53;29.58;;;18.63;;
19205;SDS011;59358;52.134;5.596;2023-02-20T14:54:17;32.33;;;18.23;;
19205;SDS011;59358;52.134;5.596;2023-02-20T14:57:00;32.58;;;17.10;;
19205;SDS011;59358;52.134;5.596;2023-02-20T14:59:48;30.65;;;16.92;;
19205;SDS011;59358;52.134;5.596;2023-02-20T15:02:31;28.65;;;16.42;;
19205;SDS011;59358;52.134;5.596;2023-02-20T15:04:59;29.40;;;16.15;;
19205;SDS011;59358;52.134;5.596;2023-02-20T15:07:31;28.42;;;14.73;;
19205;SDS011;59358;52.134;5.596;2023-02-20T15:09:59;29.08;;;17.63;;
19205;SDS011;59358;52.134;5.596;2023-02-20T15:12:30;35.03;;;19.73;;
19205;SDS011;59358;52.134;5.596;2023-02-20T15:15:00;30.33;;;19.35;;
19205;SDS011;59358;52.134;5.596;2023-02-20T15:17:30;34.95;;;19.73;;
19205;SDS011;59358;52.134;5.596;2023-02-20T15:19:57;37.75;;;21.67;;
19205;SDS011;59358;52.134;5.596;2023-02-20T15:22:29;37.78;;;23.17;;
19205;SDS011;59358;52.134;5.596;2023-02-20T15:25:10;38.70;;;25.58;;
19205;SDS011;59358;52.134;5.596;2023-02-20T15:30:28;39.67;;;24.50;;
19205;SDS011;59358;52.134;5.596;2023-02-20T15:32:55;44.53;;;26.70;;
19205;SDS011;59358;52.134;5.596;2023-02-20T15:35:24;45.95;;;23.50;;
19205;SDS011;59358;52.134;5.596;2023-02-20T15:37:54;45.58;;;21.67;;
19205;SDS011;59358;52.134;5.596;2023-02-20T15:40:23;37.55;;;21.05;;
19205;SDS011;59358;52.134;5.596;2023-02-20T15:42:51;34.58;;;21.45;;
19205;SDS011;59358;52.134;5.596;2023-02-20T15:45:21;41.63;;;22.38;;
19205;SDS011;59358;52.134;5.596;2023-02-20T15:47:48;39.20;;;24.42;;
19205;SDS011;59358;52.134;5.596;2023-02-20T15:50:15;37.05;;;23.45;;
19205;SDS011;59358;52.134;5.596;2023-02-20T15:52:42;40.20;;;23.38;;
19205;SDS011;59358;52.134;5.596;2023-02-20T15:55:14;43.47;;;23.63;;
19205;SDS011;59358;52.134;5.596;2023-02-20T15:57:44;36.17;;;21.70;;
19205;SDS011;59358;52.134;5.596;2023-02-20T16:00:17;37.20;;;23.17;;
19205;SDS011;59358;52.134;5.596;2023-02-20T16:02:45;35.63;;;20.45;;
19205;SDS011;59358;52.134;5.596;2023-02-20T16:05:12;32.67;;;19.75;;
19205;SDS011;59358;52.134;5.596;2023-02-20T16:07:39;39.13;;;19.70;;